Time;durP1;ratioP1;P1;durP2;ratioP2;P2;SDS_P1;SDS_P2;PMS_P1;PMS_P2;Temp;Humidity;BMP_temperature;BMP_pressure;BME280_temperature;BME280_humidity;BME280_pressure;Samples;Min_cycle;Max_cycle;Signal;HPM_P1;HPM_P2
2023/06/07 02:01:50;;;;;;;12.57;4.15;;;;;;;;;;4611776;28;20071;-76
2023/06/07 02:04:19;;;;;;;9.40;4.80;;;;;;;;;;4310733;33;20481;-76
2023/06/07 02:06:46;;;;;;;8.68;4.28;;;;;;;;;;4301019;33;20730;-76
2023/06/07 02:09:15;;;;;;;16.85;4.60;;;;;;;;;;4310157;33;20053;-77
2023/06/07 02:11:42;;;;;;;7.87;4.50;;;;;;;;;;4314843;33;20070;-77
2023/06/07 02:14:08;;;;;;;12.25;4.20;;;;;;;;;;4313250;33;20110;-77
2023/06/07 02:16:35;;;;;;;8.68;4.47;;;;;;;;;;4311848;33;20061;-77
2023/06/07 02:19:06;;;;;;;11.15;4.32;;;;;;;;;;4297057;33;20071;-77
2023/06/07 02:21:34;;;;;;;5.72;4.35;;;;;;;;;;4298349;33;20041;-77
2023/06/07 02:24:00;;;;;;;10.63;4.12;;;;;;;;;;4297505;33;20451;-77
2023/06/07 02:26:27;;;;;;;7.03;4.37;;;;;;;;;;4289217;33;21097;-76
2023/06/07 02:28:53;;;;;;;5.80;4.12;;;;;;;;;;4286766;33;20459;-76
2023/06/07 02:31:20;;;;;;;6.82;3.42;;;;;;;;;;4298474;33;20508;-77
2023/06/07 02:33:47;;;;;;;5.95;4.12;;;;;;;;;;4285947;33;20045;-76
2023/06/07 02:36:14;;;;;;;6.62;3.58;;;;;;;;;;4279627;33;20045;-76
2023/06/07 02:38:41;;;;;;;6.82;3.53;;;;;;;;;;4281610;33;20053;-76
2023/06/07 02:41:07;;;;;;;6.57;4.47;;;;;;;;;;4282031;33;20072;-76
2023/06/07 02:43:33;;;;;;;7.75;3.80;;;;;;;;;;4296159;33;20082;-77
2023/06/07 02:45:59;;;;;;;12.32;3.83;;;;;;;;;;4295729;33;20041;-76
2023/06/07 02:48:25;;;;;;;6.68;3.80;;;;;;;;;;4292772;33;20437;-75
2023/06/07 02:50:51;;;;;;;4.32;3.72;;;;;;;;;;4295877;33;20444;-75
2023/06/07 02:53:18;;;;;;;9.63;3.80;;;;;;;;;;4282005;33;20226;-77
2023/06/07 02:55:46;;;;;;;11.38;3.72;;;;;;;;;;4279781;33;20041;-78
2023/06/07 02:58:13;;;;;;;7.93;4.80;;;;;;;;;;4287521;33;20055;-76
2023/06/07 03:00:39;;;;;;;9.00;4.03;;;;;;;;;;4292612;33;20063;-77
2023/06/07 03:03:06;;;;;;;6.57;3.35;;;;;;;;;;4294641;33;20097;-76
2023/06/07 03:05:33;;;;;;;5.35;3.97;;;;;;;;;;4295791;33;20459;-76
2023/06/07 03:08:00;;;;;;;6.20;3.80;;;;;;;;;;4283438;33;20060;-77
2023/06/07 03:10:26;;;;;;;12.93;3.65;;;;;;;;;;4294904;33;20434;-76
2023/06/07 03:12:54;;;;;;;13.85;4.50;;;;;;;;;;4295344;33;20041;-77
2023/06/07 03:15:20;;;;;;;10.93;4.00;;;;;;;;;;4284232;33;20049;-76
2023/06/07 03:17:47;;;;;;;8.55;3.65;;;;;;;;;;4270179;33;20038;-77
2023/06/07 03:20:14;;;;;;;3.67;3.37;;;;;;;;;;4273989;33;20038;-77
2023/06/07 03:22:41;;;;;;;4.32;3.15;;;;;;;;;;4267258;33;20061;-77
2023/06/07 03:25:08;;;;;;;10.18;4.10;;;;;;;;;;4248270;33;20804;-77
2023/06/07 03:27:35;;;;;;;9.52;3.83;;;;;;;;;;4236697;33;20051;-78
2023/06/07 03:30:03;;;;;;;9.07;3.30;;;;;;;;;;4238455;33;20035;-78
2023/06/07 03:32:30;;;;;;;6.07;3.42;;;;;;;;;;4260602;33;20057;-76
2023/06/07 03:35:03;;;;;;;6.53;3.00;;;;;;;;;;4271060;33;20093;-78
2023/06/07 03:37:30;;;;;;;11.35;3.67;;;;;;;;;;4270993;33;20404;-78
2023/06/07 03:39:56;;;;;;;8.85;3.28;;;;;;;;;;4266412;33;20089;-78
2023/06/07 03:42:22;;;;;;;11.25;3.30;;;;;;;;;;4273429;33;20057;-77
2023/06/07 03:44:48;;;;;;;5.53;3.33;;;;;;;;;;4273772;33;20064;-79
2023/06/07 03:47:16;;;;;;;4.15;3.00;;;;;;;;;;4266155;33;20080;-78
2023/06/07 03:49:43;;;;;;;7.37;3.53;;;;;;;;;;4271886;33;20042;-77
2023/06/07 03:52:10;;;;;;;8.35;3.37;;;;;;;;;;4280641;33;20511;-79
2023/06/07 03:54:38;;;;;;;14.07;3.87;;;;;;;;;;4270218;33;20107;-79
2023/06/07 03:57:05;;;;;;;4.05;2.53;;;;;;;;;;4266082;33;20253;-77
2023/06/07 03:59:34;;;;;;;11.10;3.97;;;;;;;;;;4270127;33;20034;-78
2023/06/07 04:02:01;;;;;;;12.88;3.33;;;;;;;;;;4282532;33;20056;-77
2023/06/07 04:04:27;;;;;;;18.02;4.30;;;;;;;;;;4282413;33;20407;-75
2023/06/07 04:06:55;;;;;;;6.82;3.42;;;;;;;;;;4286620;33;20067;-76
2023/06/07 04:09:21;;;;;;;6.28;3.67;;;;;;;;;;4297194;33;20049;-77
2023/06/07 04:11:47;;;;;;;4.78;3.30;;;;;;;;;;4299359;33;20049;-77
2023/06/07 04:14:13;;;;;;;7.28;3.97;;;;;;;;;;4297199;33;20455;-77
2023/06/07 04:16:39;;;;;;;6.90;3.42;;;;;;;;;;4296852;33;20075;-77
2023/06/07 04:19:06;;;;;;;19.23;3.45;;;;;;;;;;4295552;33;20064;-77
2023/06/07 04:21:33;;;;;;;5.90;3.50;;;;;;;;;;4296962;33;20485;-76
2023/06/07 04:24:00;;;;;;;7.15;3.78;;;;;;;;;;4296925;33;20071;-77
2023/06/07 04:26:29;;;;;;;8.43;4.18;;;;;;;;;;4299825;33;20083;-76
2023/06/07 04:28:56;;;;;;;10.20;3.55;;;;;;;;;;4300288;33;20078;-76
2023/06/07 04:31:29;;;;;;;6.53;3.47;;;;;;;;;;4279523;33;20052;-77
2023/06/07 04:34:01;;;;;;;6.90;4.18;;;;;;;;;;4264196;33;20471;-77
2023/06/07 04:36:31;;;;;;;4.80;3.47;;;;;;;;;;4264419;33;20910;-77
2023/06/07 04:38:58;;;;;;;5.57;4.90;;;;;;;;;;4264225;33;20115;-77
2023/06/07 04:41:32;;;;;;;8.45;4.03;;;;;;;;;;4270360;33;20057;-77
2023/06/07 04:44:03;;;;;;;21.12;3.25;;;;;;;;;;4275148;33;20203;-77
2023/06/07 04:46:30;;;;;;;8.75;3.90;;;;;;;;;;4277224;33;20053;-76
2023/06/07 04:48:58;;;;;;;3.20;2.87;;;;;;;;;;4265032;33;20042;-78
2023/06/07 04:51:29;;;;;;;4.28;3.15;;;;;;;;;;4270841;33;20041;-78
2023/06/07 04:53:58;;;;;;;6.68;3.28;;;;;;;;;;4279662;33;20041;-78
2023/06/07 04:56:26;;;;;;;6.82;2.72;;;;;;;;;;4279335;33;20061;-77
2023/06/07 04:58:53;;;;;;;5.95;2.90;;;;;;;;;;4265848;33;20084;-78
2023/06/07 05:01:20;;;;;;;14.43;3.35;;;;;;;;;;4264414;33;20084;-77
2023/06/07 05:03:49;;;;;;;6.70;3.42;;;;;;;;;;4249528;33;20414;-77
2023/06/07 05:06:18;;;;;;;5.93;3.30;;;;;;;;;;4251304;33;20492;-80
2023/06/07 05:08:45;;;;;;;4.57;2.55;;;;;;;;;;4247694;33;20050;-75
2023/06/07 05:11:12;;;;;;;8.85;3.47;;;;;;;;;;4251504;33;20076;-76
2023/06/07 05:13:38;;;;;;;9.27;3.47;;;;;;;;;;4251336;33;20074;-76
2023/06/07 05:16:04;;;;;;;10.73;3.00;;;;;;;;;;4260905;33;20030;-76
2023/06/07 05:18:31;;;;;;;4.43;2.60;;;;;;;;;;4265144;33;20075;-76
2023/06/07 05:20:58;;;;;;;6.53;2.85;;;;;;;;;;4258722;33;20111;-76
2023/06/07 05:23:25;;;;;;;4.03;2.80;;;;;;;;;;4251002;33;20423;-78
2023/06/07 05:25:52;;;;;;;6.18;2.87;;;;;;;;;;4250682;33;20066;-76
2023/06/07 05:28:18;;;;;;;4.20;2.80;;;;;;;;;;4238437;33;20097;-76
2023/06/07 05:30:45;;;;;;;6.35;2.83;;;;;;;;;;4242503;33;20783;-76
2023/06/07 05:33:12;;;;;;;5.32;3.35;;;;;;;;;;4245656;33;20333;-75
2023/06/07 05:35:38;;;;;;;3.85;2.90;;;;;;;;;;4266875;33;20075;-75
2023/06/07 05:38:04;;;;;;;5.97;2.50;;;;;;;;;;4265017;33;20054;-76
2023/06/07 05:40:31;;;;;;;4.75;2.80;;;;;;;;;;4249682;33;20136;-75
2023/06/07 05:42:57;;;;;;;8.13;2.85;;;;;;;;;;4250359;33;20057;-74
2023/06/07 05:45:23;;;;;;;10.27;3.60;;;;;;;;;;4247533;33;20084;-76
2023/06/07 05:47:50;;;;;;;10.18;3.05;;;;;;;;;;4248074;33;20080;-76
2023/06/07 05:50:19;;;;;;;23.83;4.03;;;;;;;;;;4249606;33;20073;-78
2023/06/07 05:52:45;;;;;;;11.18;3.17;;;;;;;;;;4252886;33;20447;-75
2023/06/07 05:55:12;;;;;;;5.35;3.40;;;;;;;;;;4248312;33;20072;-78
2023/06/07 05:57:45;;;;;;;3.53;2.87;;;;;;;;;;4249683;33;20109;-77
2023/06/07 06:00:12;;;;;;;5.57;2.83;;;;;;;;;;4260641;33;20391;-78
2023/06/07 06:02:42;;;;;;;4.65;3.10;;;;;;;;;;4263305;33;20157;-77
2023/06/07 06:05:09;;;;;;;5.87;3.37;;;;;;;;;;4262177;33;20083;-75
2023/06/07 06:07:35;;;;;;;7.05;3.20;;;;;;;;;;4264204;33;20050;-78
2023/06/07 06:10:02;;;;;;;14.43;3.47;;;;;;;;;;4272980;33;20053;-77
2023/06/07 06:12:28;;;;;;;7.97;2.62;;;;;;;;;;4294349;33;20049;-76
2023/06/07 06:14:55;;;;;;;9.27;3.15;;;;;;;;;;4296857;33;20057;-77
2023/06/07 06:17:21;;;;;;;7.72;2.87;;;;;;;;;;4296599;33;20436;-76
2023/06/07 06:19:47;;;;;;;13.60;2.70;;;;;;;;;;4297543;33;20100;-77
2023/06/07 06:22:13;;;;;;;3.03;2.72;;;;;;;;;;4297793;33;20071;-77
2023/06/07 06:24:40;;;;;;;6.65;2.75;;;;;;;;;;4296473;33;20439;-78
2023/06/07 06:27:06;;;;;;;10.65;2.92;;;;;;;;;;4279476;33;20063;-76
2023/06/07 06:29:32;;;;;;;7.70;2.80;;;;;;;;;;4271943;33;20121;-75
2023/06/07 06:31:59;;;;;;;7.97;2.55;;;;;;;;;;4267744;33;20066;-77
2023/06/07 06:34:26;;;;;;;4.00;3.55;;;;;;;;;;4269199;33;20049;-75
2023/06/07 06:36:52;;;;;;;4.07;2.90;;;;;;;;;;4272240;33;20590;-78
2023/06/07 06:39:19;;;;;;;15.38;3.00;;;;;;;;;;4269738;33;20054;-77
2023/06/07 06:41:46;;;;;;;3.78;2.30;;;;;;;;;;4274931;33;20459;-76
2023/06/07 06:44:18;;;;;;;10.73;2.90;;;;;;;;;;4271628;33;20273;-76
2023/06/07 06:46:44;;;;;;;15.88;3.22;;;;;;;;;;4271895;33;20123;-77
2023/06/07 06:49:16;;;;;;;2.47;2.30;;;;;;;;;;4267570;33;20350;-78
2023/06/07 06:51:43;;;;;;;8.88;2.80;;;;;;;;;;4266721;33;20193;-75
2023/06/07 06:54:09;;;;;;;8.23;3.12;;;;;;;;;;4271656;33;20050;-76
2023/06/07 06:56:35;;;;;;;2.45;2.30;;;;;;;;;;4281284;33;20057;-77
2023/06/07 06:59:01;;;;;;;3.92;2.53;;;;;;;;;;4295456;33;20071;-77
2023/06/07 07:01:41;;;;;;;4.82;2.55;;;;;;;;;;4297533;33;20104;-77
2023/06/07 07:04:07;;;;;;;11.30;2.90;;;;;;;;;;4295575;33;20088;-77
2023/06/07 07:06:34;;;;;;;7.65;3.17;;;;;;;;;;4297639;33;20071;-76
2023/06/07 07:09:00;;;;;;;6.22;2.83;;;;;;;;;;4296768;33;20042;-79
2023/06/07 07:11:26;;;;;;;4.32;2.30;;;;;;;;;;4295526;33;20060;-79
2023/06/07 07:13:53;;;;;;;4.22;2.25;;;;;;;;;;4296387;33;20030;-79
2023/06/07 07:16:19;;;;;;;3.67;2.50;;;;;;;;;;4295137;33;20467;-79
2023/06/07 07:18:45;;;;;;;9.20;2.62;;;;;;;;;;4295140;33;20083;-79
2023/06/07 07:21:11;;;;;;;4.03;2.90;;;;;;;;;;4293488;33;20052;-81
2023/06/07 07:23:37;;;;;;;5.97;2.37;;;;;;;;;;4294485;33;20045;-75
2023/06/07 07:26:03;;;;;;;4.85;2.50;;;;;;;;;;4293899;33;20419;-77
2023/06/07 07:28:30;;;;;;;8.48;2.62;;;;;;;;;;4292017;33;20045;-78
2023/06/07 07:30:56;;;;;;;6.90;2.62;;;;;;;;;;4294014;33;20850;-81
2023/06/07 07:33:22;;;;;;;4.78;3.10;;;;;;;;;;4278187;33;20108;-76
2023/06/07 07:35:49;;;;;;;4.82;2.97;;;;;;;;;;4287582;33;20055;-82
2023/06/07 07:38:15;;;;;;;8.73;3.17;;;;;;;;;;4250051;33;20047;-75
2023/06/07 07:40:44;;;;;;;9.95;2.65;;;;;;;;;;4250022;33;20072;-78
2023/06/07 07:43:10;;;;;;;4.12;2.60;;;;;;;;;;4249806;33;20924;-77
2023/06/07 07:45:37;;;;;;;4.35;2.37;;;;;;;;;;4251421;33;20177;-77
2023/06/07 07:48:03;;;;;;;3.42;2.42;;;;;;;;;;4251721;33;20205;-77
2023/06/07 07:50:38;;;;;;;3.60;2.70;;;;;;;;;;4249271;33;20075;-78
2023/06/07 07:55:44;;;;;;;14.30;2.25;;;;;;;;;;4245754;33;20185;-79
2023/06/07 07:58:10;;;;;;;3.30;2.35;;;;;;;;;;4230232;33;20081;-77
2023/06/07 08:00:37;;;;;;;4.03;2.15;;;;;;;;;;4246689;33;20522;-77
2023/06/07 08:03:03;;;;;;;2.22;2.12;;;;;;;;;;4241893;33;20054;-77
2023/06/07 08:05:30;;;;;;;2.47;2.28;;;;;;;;;;4257591;33;20075;-76
2023/06/07 08:07:56;;;;;;;6.57;1.70;;;;;;;;;;4256404;33;20064;-76
2023/06/07 08:10:24;;;;;;;5.75;1.70;;;;;;;;;;4285998;33;20495;-76
2023/06/07 08:12:50;;;;;;;3.28;2.42;;;;;;;;;;4279746;33;20447;-76
2023/06/07 08:15:16;;;;;;;2.87;2.28;;;;;;;;;;4280343;33;20497;-76
2023/06/07 08:17:43;;;;;;;2.53;2.30;;;;;;;;;;4282686;33;20579;-75
2023/06/07 08:20:09;;;;;;;10.57;2.72;;;;;;;;;;4279473;33;20050;-75
2023/06/07 08:22:38;;;;;;;5.35;2.37;;;;;;;;;;4278295;33;20041;-75
2023/06/07 08:25:05;;;;;;;4.28;2.30;;;;;;;;;;4287969;33;20075;-73
2023/06/07 08:27:31;;;;;;;8.95;3.12;;;;;;;;;;4278237;33;20741;-73
2023/06/07 08:29:58;;;;;;;3.33;2.22;;;;;;;;;;4288442;33;20049;-74
2023/06/07 08:32:24;;;;;;;5.60;2.80;;;;;;;;;;4292226;33;20037;-74
2023/06/07 08:34:50;;;;;;;6.70;2.40;;;;;;;;;;4271458;33;20172;-73
2023/06/07 08:37:16;;;;;;;4.70;1.95;;;;;;;;;;4275960;33;20049;-74
2023/06/07 08:39:43;;;;;;;4.78;2.55;;;;;;;;;;4277666;33;20090;-74
2023/06/07 08:42:09;;;;;;;2.67;2.42;;;;;;;;;;4278531;33;20046;-74
2023/06/07 08:44:36;;;;;;;5.97;2.42;;;;;;;;;;4277490;33;20045;-75
2023/06/07 08:47:02;;;;;;;8.07;2.25;;;;;;;;;;4262764;33;20067;-74
2023/06/07 08:49:31;;;;;;;11.38;3.90;;;;;;;;;;4269444;33;20064;-74
2023/06/07 08:51:58;;;;;;;3.42;2.22;;;;;;;;;;4271006;33;20081;-76
2023/06/07 08:54:26;;;;;;;3.47;2.40;;;;;;;;;;4254135;33;20073;-76
2023/06/07 08:56:53;;;;;;;8.48;2.47;;;;;;;;;;4242631;33;20072;-75
2023/06/07 09:01:53;;;;;;;3.78;2.67;;;;;;;;;;4238026;33;20080;-76
2023/06/07 09:04:19;;;;;;;9.90;3.30;;;;;;;;;;4239176;33;20083;-76
2023/06/07 09:06:45;;;;;;;12.63;2.70;;;;;;;;;;4250415;33;20121;-76
2023/06/07 09:09:12;;;;;;;15.88;2.33;;;;;;;;;;4255676;33;20072;-76
2023/06/07 09:11:38;;;;;;;6.37;2.50;;;;;;;;;;4254690;33;20054;-75
2023/06/07 09:14:05;;;;;;;14.10;2.87;;;;;;;;;;4254214;33;20053;-75
2023/06/07 09:16:31;;;;;;;5.65;2.28;;;;;;;;;;4253564;33;20076;-75
2023/06/07 09:18:57;;;;;;;8.00;2.33;;;;;;;;;;4258349;33;20058;-75
2023/06/07 09:21:24;;;;;;;4.10;2.35;;;;;;;;;;4265745;33;20080;-75
2023/06/07 09:23:51;;;;;;;2.35;1.95;;;;;;;;;;4263749;33;20083;-75
2023/06/07 09:26:18;;;;;;;3.80;2.60;;;;;;;;;;4289088;33;20079;-75
2023/06/07 09:28:47;;;;;;;2.78;2.20;;;;;;;;;;4292612;33;20045;-74
2023/06/07 09:31:28;;;;;;;14.35;2.47;;;;;;;;;;4291568;33;20045;-75
2023/06/07 09:33:55;;;;;;;2.33;2.12;;;;;;;;;;4293412;33;20052;-75
2023/06/07 09:36:22;;;;;;;6.78;2.37;;;;;;;;;;4291538;33;20103;-74
2023/06/07 09:38:48;;;;;;;3.78;2.42;;;;;;;;;;4292700;33;20096;-75
2023/06/07 09:41:14;;;;;;;2.17;1.60;;;;;;;;;;4291225;33;20072;-74
2023/06/07 09:43:50;;;;;;;2.30;2.10;;;;;;;;;;4293184;33;20061;-75
2023/06/07 09:46:17;;;;;;;4.45;2.05;;;;;;;;;;4294504;33;20037;-75
2023/06/07 09:48:53;;;;;;;5.78;2.35;;;;;;;;;;4295549;33;20041;-75
2023/06/07 09:51:20;;;;;;;8.88;2.15;;;;;;;;;;4280393;33;20071;-75
2023/06/07 09:53:54;;;;;;;2.37;2.17;;;;;;;;;;4280652;33;20448;-75
2023/06/07 09:56:21;;;;;;;4.75;1.85;;;;;;;;;;4280301;33;20037;-74
2023/06/07 09:58:51;;;;;;;7.87;2.30;;;;;;;;;;4279177;33;20081;-75
2023/06/07 10:01:30;;;;;;;7.10;2.10;;;;;;;;;;4280927;33;21067;-75
2023/06/07 10:04:06;;;;;;;5.32;2.28;;;;;;;;;;4281816;33;20852;-75
2023/06/07 10:06:33;;;;;;;2.80;1.92;;;;;;;;;;4280505;33;20032;-75
2023/06/07 10:09:00;;;;;;;8.40;3.28;;;;;;;;;;4280981;33;20813;-75
2023/06/07 10:11:26;;;;;;;4.85;2.50;;;;;;;;;;4281799;33;20407;-75
2023/06/07 10:13:53;;;;;;;7.87;2.55;;;;;;;;;;4288787;33;20037;-75
2023/06/07 10:16:34;;;;;;;5.72;1.90;;;;;;;;;;4296786;33;20049;-74
2023/06/07 10:19:10;;;;;;;41.70;20.83;;;;;;;;;;4299811;33;20075;-74
2023/06/07 10:21:37;;;;;;;7.32;2.90;;;;;;;;;;4282454;33;20109;-74
2023/06/07 10:24:09;;;;;;;2.97;2.35;;;;;;;;;;4281449;33;20057;-75
2023/06/07 10:26:49;;;;;;;5.95;2.65;;;;;;;;;;4277865;33;20079;-73
2023/06/07 10:29:36;;;;;;;5.85;2.03;;;;;;;;;;4281638;33;20677;-73
2023/06/07 10:32:10;;;;;;;3.53;2.22;;;;;;;;;;4279029;33;20047;-73
2023/06/07 10:34:38;;;;;;;5.28;2.53;;;;;;;;;;4281195;33;20081;-74
2023/06/07 10:37:09;;;;;;;2.80;2.47;;;;;;;;;;4279844;33;20053;-74
2023/06/07 10:39:38;;;;;;;6.78;2.80;;;;;;;;;;4281042;33;20096;-74
2023/06/07 10:42:06;;;;;;;12.65;3.80;;;;;;;;;;4278997;33;20041;-73
2023/06/07 10:44:35;;;;;;;7.55;2.45;;;;;;;;;;4281739;33;20053;-74
2023/06/07 10:47:19;;;;;;;6.22;2.22;;;;;;;;;;4280944;33;20071;-74
2023/06/07 10:49:46;;;;;;;12.13;2.33;;;;;;;;;;4278091;33;20045;-74
2023/06/07 10:52:17;;;;;;;7.68;2.87;;;;;;;;;;4280379;33;20075;-74
2023/06/07 10:54:44;;;;;;;7.60;2.30;;;;;;;;;;4280727;33;20057;-73
2023/06/07 10:57:12;;;;;;;7.78;1.92;;;;;;;;;;4282124;33;20443;-74
2023/06/07 10:59:40;;;;;;;5.35;2.37;;;;;;;;;;4293138;33;20036;-74
2023/06/07 11:02:18;;;;;;;6.25;3.30;;;;;;;;;;4414415;28;20047;-74
2023/06/07 11:04:51;;;;;;;4.93;2.97;;;;;;;;;;4252928;33;20254;-75
2023/06/07 11:07:18;;;;;;;4.87;1.90;;;;;;;;;;4252968;33;20077;-75
2023/06/07 11:09:45;;;;;;;4.20;2.33;;;;;;;;;;4251833;33;20067;-74
2023/06/07 11:12:40;;;;;;;3.65;2.25;;;;;;;;;;4252235;33;20030;-76
2023/06/07 11:15:24;;;;;;;2.50;2.30;;;;;;;;;;4243566;33;20078;-75
2023/06/07 11:17:54;;;;;;;7.05;2.87;;;;;;;;;;4249726;33;20456;-75
2023/06/07 11:20:39;;;;;;;3.37;1.80;;;;;;;;;;4250921;33;20811;-75
2023/06/07 11:23:24;;;;;;;4.20;2.17;;;;;;;;;;4252852;33;20050;-75
2023/06/07 11:25:52;;;;;;;9.32;2.67;;;;;;;;;;4251618;33;20061;-75
2023/06/07 11:28:21;;;;;;;5.87;2.42;;;;;;;;;;4250189;33;20027;-75
2023/06/07 11:30:49;;;;;;;10.57;2.45;;;;;;;;;;4250120;33;20101;-74
2023/06/07 11:33:15;;;;;;;7.05;2.10;;;;;;;;;;4258167;33;20353;-75
2023/06/07 11:35:42;;;;;;;2.90;2.58;;;;;;;;;;4266159;33;20050;-75
2023/06/07 11:38:08;;;;;;;2.22;2.12;;;;;;;;;;4267846;33;20340;-74
2023/06/07 11:40:35;;;;;;;8.27;2.47;;;;;;;;;;4265660;33;20448;-74
2023/06/07 11:43:01;;;;;;;4.35;2.80;;;;;;;;;;4268051;33;20081;-75
2023/06/07 11:45:28;;;;;;;15.65;8.88;;;;;;;;;;4269272;33;20080;-75
2023/06/07 11:48:00;;;;;;;6.03;2.65;;;;;;;;;;4263587;33;20054;-75
2023/06/07 11:50:26;;;;;;;4.95;3.10;;;;;;;;;;4265604;33;20489;-74
2023/06/07 11:52:53;;;;;;;2.78;2.50;;;;;;;;;;4266398;33;20053;-74
2023/06/07 11:55:20;;;;;;;2.33;2.10;;;;;;;;;;4266213;33;20038;-74
2023/06/07 11:57:48;;;;;;;5.68;2.50;;;;;;;;;;4264532;33;20034;-75
2023/06/07 12:00:16;;;;;;;4.57;2.08;;;;;;;;;;4265559;33;20046;-75
2023/06/07 12:02:43;;;;;;;12.07;2.53;;;;;;;;;;4265091;33;20124;-74
2023/06/07 12:05:10;;;;;;;15.38;2.58;;;;;;;;;;4265381;33;20033;-75
2023/06/07 12:07:36;;;;;;;11.00;2.17;;;;;;;;;;4257648;33;20060;-75
2023/06/07 12:10:03;;;;;;;5.15;2.20;;;;;;;;;;4239051;33;20066;-75
2023/06/07 12:12:29;;;;;;;5.50;2.67;;;;;;;;;;4235395;33;20121;-74
2023/06/07 12:14:59;;;;;;;6.68;2.10;;;;;;;;;;4236405;33;20058;-74
2023/06/07 12:17:25;;;;;;;6.40;2.30;;;;;;;;;;4211321;33;20053;-74
2023/06/07 12:19:53;;;;;;;10.15;3.50;;;;;;;;;;4222526;33;20904;-74
2023/06/07 12:22:18;;;;;;;16.23;2.50;;;;;;;;;;4222861;33;20057;-74
2023/06/07 12:24:46;;;;;;;7.22;2.58;;;;;;;;;;4223049;33;20066;-73
2023/06/07 12:27:13;;;;;;;11.75;3.95;;;;;;;;;;4223059;34;20038;-73
2023/06/07 12:29:40;;;;;;;9.05;2.50;;;;;;;;;;4222485;33;20159;-72
2023/06/07 12:32:06;;;;;;;3.03;2.83;;;;;;;;;;4223138;33;20195;-74
2023/06/07 12:34:33;;;;;;;3.47;2.28;;;;;;;;;;4224413;33;20051;-72
2023/06/07 12:36:59;;;;;;;10.80;2.20;;;;;;;;;;4221961;33;20038;-73
2023/06/07 12:39:28;;;;;;;6.40;2.28;;;;;;;;;;4237814;33;20081;-73
2023/06/07 12:41:54;;;;;;;4.50;2.50;;;;;;;;;;4244509;33;20068;-73
2023/06/07 12:44:20;;;;;;;5.93;2.40;;;;;;;;;;4257134;33;20113;-74
2023/06/07 12:46:46;;;;;;;2.53;2.05;;;;;;;;;;4252205;33;20417;-72
2023/06/07 12:49:13;;;;;;;3.28;2.30;;;;;;;;;;4259157;33;20064;-72
2023/06/07 12:51:39;;;;;;;8.15;2.20;;;;;;;;;;4249756;33;20210;-73
2023/06/07 12:54:05;;;;;;;7.15;2.35;;;;;;;;;;4253893;33;20042;-74
2023/06/07 12:56:32;;;;;;;4.03;3.22;;;;;;;;;;4249885;33;20046;-74
2023/06/07 12:58:58;;;;;;;22.58;16.45;;;;;;;;;;4227952;33;20063;-74
2023/06/07 13:01:24;;;;;;;11.12;3.15;;;;;;;;;;4239145;33;21131;-74
2023/06/07 13:03:50;;;;;;;6.03;2.80;;;;;;;;;;4246158;33;20046;-74
2023/06/07 13:06:16;;;;;;;2.50;2.22;;;;;;;;;;4253874;33;20096;-74
2023/06/07 13:08:43;;;;;;;3.75;3.08;;;;;;;;;;4247757;33;20063;-74
2023/06/07 13:11:11;;;;;;;3.25;2.90;;;;;;;;;;4242559;33;20035;-75
2023/06/07 13:13:37;;;;;;;5.30;2.53;;;;;;;;;;4233872;33;20074;-74
2023/06/07 13:16:05;;;;;;;6.20;2.53;;;;;;;;;;4234576;33;20520;-74
2023/06/07 13:18:33;;;;;;;7.78;2.37;;;;;;;;;;4230516;33;20466;-74
2023/06/07 13:21:02;;;;;;;2.80;2.55;;;;;;;;;;4221274;33;20047;-75
2023/06/07 13:23:29;;;;;;;5.62;2.67;;;;;;;;;;4223490;33;20088;-75
2023/06/07 13:25:55;;;;;;;12.93;3.10;;;;;;;;;;4238363;33;20039;-75
2023/06/07 13:28:21;;;;;;;6.80;2.47;;;;;;;;;;4235530;33;20076;-73
2023/06/07 13:30:47;;;;;;;6.95;2.10;;;;;;;;;;4236846;33;20407;-74
2023/06/07 13:33:17;;;;;;;9.05;2.30;;;;;;;;;;4234979;33;20084;-72
2023/06/07 13:35:43;;;;;;;13.90;2.62;;;;;;;;;;4243130;33;20296;-73
2023/06/07 13:38:09;;;;;;;4.00;2.45;;;;;;;;;;4271497;33;20582;-73
2023/06/07 13:40:35;;;;;;;5.20;2.33;;;;;;;;;;4264795;33;20059;-73
2023/06/07 13:43:02;;;;;;;8.07;2.60;;;;;;;;;;4263145;33;20135;-76
2023/06/07 13:45:28;;;;;;;2.92;1.92;;;;;;;;;;4263566;33;20062;-76
2023/06/07 13:47:54;;;;;;;5.60;2.40;;;;;;;;;;4263576;33;20081;-76
2023/06/07 13:50:20;;;;;;;3.33;2.20;;;;;;;;;;4267179;33;20509;-74
2023/06/07 13:52:46;;;;;;;4.28;2.53;;;;;;;;;;4262269;33;20050;-74
2023/06/07 13:55:12;;;;;;;5.00;2.08;;;;;;;;;;4254043;33;20647;-75
2023/06/07 13:57:40;;;;;;;7.05;2.80;;;;;;;;;;4264416;33;20073;-75
2023/06/07 14:00:06;;;;;;;8.88;2.45;;;;;;;;;;4264001;33;20173;-75
2023/06/07 14:02:37;;;;;;;;;;;;;;;;;;4266677;33;20127;-75
2023/06/07 14:05:04;;;;;;;2.33;2.03;;;;;;;;;;4262625;33;19964;-74
2023/06/07 14:07:30;;;;;;;8.43;2.55;;;;;;;;;;4262999;33;20063;-74
2023/06/07 14:09:56;;;;;;;2.22;2.00;;;;;;;;;;4264402;33;20057;-74
2023/06/07 14:12:22;;;;;;;14.48;2.28;;;;;;;;;;4259567;33;20195;-74
2023/06/07 14:14:48;;;;;;;2.62;1.77;;;;;;;;;;4251112;33;20068;-74
2023/06/07 14:17:14;;;;;;;6.90;2.40;;;;;;;;;;4251660;33;20051;-74
2023/06/07 14:19:42;;;;;;;8.60;2.60;;;;;;;;;;4248374;33;20894;-73
2023/06/07 14:22:09;;;;;;;4.15;2.42;;;;;;;;;;4254497;33;20070;-74
2023/06/07 14:24:35;;;;;;;9.27;3.30;;;;;;;;;;4262981;33;20506;-74
2023/06/07 14:27:01;;;;;;;7.05;2.55;;;;;;;;;;4265064;33;20062;-76
2023/06/07 14:29:27;;;;;;;4.85;2.10;;;;;;;;;;4265625;33;20077;-74
2023/06/07 14:31:54;;;;;;;10.13;2.10;;;;;;;;;;4268086;33;20083;-74
2023/06/07 14:34:20;;;;;;;4.53;2.58;;;;;;;;;;4268791;33;20768;-73
2023/06/07 14:36:46;;;;;;;3.15;2.60;;;;;;;;;;4267496;33;20079;-74
2023/06/07 14:39:12;;;;;;;6.37;2.10;;;;;;;;;;4265051;33;20828;-74
2023/06/07 14:41:38;;;;;;;3.97;3.10;;;;;;;;;;4266544;33;20067;-74
2023/06/07 14:44:05;;;;;;;5.62;2.33;;;;;;;;;;4266885;33;20414;-74
2023/06/07 14:46:31;;;;;;;9.45;2.70;;;;;;;;;;4266774;33;20061;-74
2023/06/07 14:48:57;;;;;;;4.15;2.25;;;;;;;;;;4263976;33;20078;-75
2023/06/07 14:51:26;;;;;;;5.87;2.67;;;;;;;;;;4263973;33;20046;-74
2023/06/07 14:53:51;;;;;;;4.70;2.65;;;;;;;;;;4266025;33;20054;-74
2023/06/07 14:56:25;;;;;;;4.87;3.42;;;;;;;;;;4265013;33;20112;-74
2023/06/07 14:58:51;;;;;;;6.95;2.60;;;;;;;;;;4264898;33;20034;-75
2023/06/07 15:01:17;;;;;;;7.37;2.28;;;;;;;;;;4263294;33;20085;-76
2023/06/07 15:03:43;;;;;;;5.68;3.08;;;;;;;;;;4265496;33;20046;-75
2023/06/07 15:06:10;;;;;;;8.32;2.60;;;;;;;;;;4266490;33;20748;-75
2023/06/07 15:08:36;;;;;;;3.15;2.65;;;;;;;;;;4265731;33;20097;-75
2023/06/07 15:11:10;;;;;;;8.07;2.47;;;;;;;;;;4266190;33;20075;-77
2023/06/07 15:13:36;;;;;;;5.28;2.40;;;;;;;;;;4263477;33;20488;-75
2023/06/07 15:16:02;;;;;;;9.45;2.65;;;;;;;;;;4266163;33;20462;-74
2023/06/07 15:18:28;;;;;;;4.32;2.85;;;;;;;;;;4250859;33;20182;-75
2023/06/07 15:20:55;;;;;;;6.53;2.10;;;;;;;;;;4250694;33;20113;-77
2023/06/07 15:23:21;;;;;;;5.70;2.72;;;;;;;;;;4249658;33;20064;-78
2023/06/07 15:25:47;;;;;;;4.82;2.30;;;;;;;;;;4250579;33;20447;-75
2023/06/07 15:28:13;;;;;;;13.35;2.90;;;;;;;;;;4252257;33;20153;-76
2023/06/07 15:30:39;;;;;;;10.38;2.90;;;;;;;;;;4251495;33;20121;-74
2023/06/07 15:33:06;;;;;;;9.02;2.65;;;;;;;;;;4236425;33;20076;-75
2023/06/07 15:35:32;;;;;;;5.95;2.60;;;;;;;;;;4234957;33;20077;-78
2023/06/07 15:37:58;;;;;;;2.78;2.15;;;;;;;;;;4237061;33;20046;-76
2023/06/07 15:40:24;;;;;;;8.52;3.60;;;;;;;;;;4237728;33;20170;-75
2023/06/07 15:42:50;;;;;;;21.08;2.72;;;;;;;;;;4239690;33;20042;-75
2023/06/07 15:45:17;;;;;;;6.60;2.72;;;;;;;;;;4236459;33;20063;-75
2023/06/07 15:47:57;;;;;;;14.10;3.25;;;;;;;;;;4233277;33;20042;-75
2023/06/07 15:50:23;;;;;;;12.77;3.95;;;;;;;;;;4237733;33;20062;-75
2023/06/07 15:52:49;;;;;;;10.50;3.05;;;;;;;;;;4237316;33;20056;-74
2023/06/07 15:55:15;;;;;;;12.27;3.15;;;;;;;;;;4235311;33;20124;-75
2023/06/07 15:57:42;;;;;;;14.50;4.10;;;;;;;;;;4247382;33;20076;-75
2023/06/07 16:00:09;;;;;;;17.27;3.42;;;;;;;;;;4251733;33;20050;-75
2023/06/07 16:02:38;;;;;;;7.82;2.80;;;;;;;;;;4251111;33;20099;-74
2023/06/07 16:05:05;;;;;;;4.22;2.80;;;;;;;;;;4250582;33;20444;-74
2023/06/07 16:07:31;;;;;;;13.60;5.90;;;;;;;;;;4250010;33;20228;-75
2023/06/07 16:09:57;;;;;;;4.95;3.70;;;;;;;;;;4254056;33;20084;-74
2023/06/07 16:12:23;;;;;;;4.53;2.87;;;;;;;;;;4267990;33;20054;-74
2023/06/07 16:14:49;;;;;;;10.02;2.70;;;;;;;;;;4266397;33;20071;-74
2023/06/07 16:17:15;;;;;;;14.15;2.80;;;;;;;;;;4265450;33;20524;-74
2023/06/07 16:19:42;;;;;;;10.35;3.08;;;;;;;;;;4263007;33;20453;-75
2023/06/07 16:22:07;;;;;;;8.75;3.10;;;;;;;;;;4265074;33;20081;-74
2023/06/07 16:24:34;;;;;;;11.32;3.03;;;;;;;;;;4264722;33;20119;-74
2023/06/07 16:27:00;;;;;;;7.68;2.80;;;;;;;;;;4263890;33;20064;-74
2023/06/07 16:29:27;;;;;;;4.47;2.92;;;;;;;;;;4265106;33;20055;-74
2023/06/07 16:31:53;;;;;;;9.57;3.22;;;;;;;;;;4263049;33;20384;-74
2023/06/07 16:34:19;;;;;;;11.27;3.22;;;;;;;;;;4264318;33;20061;-74
2023/06/07 16:36:45;;;;;;;2.58;2.33;;;;;;;;;;4264295;33;20445;-74
2023/06/07 16:39:12;;;;;;;6.55;2.97;;;;;;;;;;4250006;33;20075;-75
2023/06/07 16:41:40;;;;;;;6.85;2.12;;;;;;;;;;4249962;33;20089;-74
2023/06/07 16:44:07;;;;;;;3.05;2.85;;;;;;;;;;4248767;33;20054;-74
2023/06/07 16:46:33;;;;;;;7.60;2.30;;;;;;;;;;4249776;33;20672;-74
2023/06/07 16:48:59;;;;;;;10.68;2.62;;;;;;;;;;4251811;33;20057;-74